Time;durP1;ratioP1;P1;durP2;ratioP2;P2;SDS_P1;SDS_P2;PMS_P1;PMS_P2;Temp;Humidity;BMP_temperature;BMP_pressure;BME280_temperature;BME280_humidity;BME280_pressure;Samples;Min_cycle;Max_cycle;Signal;HPM_P1;HPM_P2
2023/10/19 00:02:15;;;;;;;11.90;4.82;;;9.30;99.90;;;;;;5107940;28;20071;-61
2023/10/19 00:04:42;;;;;;;10.55;5.43;;;9.30;99.90;;;;;;5106338;28;20050;-61
2023/10/19 00:07:15;;;;;;;7.35;5.00;;;9.30;99.90;;;;;;5110868;28;20047;-60
2023/10/19 00:09:48;;;;;;;8.57;5.38;;;9.40;99.90;;;;;;5106586;28;20040;-61
2023/10/19 00:12:16;;;;;;;13.43;5.32;;;9.30;99.90;;;;;;5110165;28;20046;-61
2023/10/19 00:14:43;;;;;;;11.35;5.63;;;9.30;99.90;;;;;;5103517;28;20036;-60
2023/10/19 00:17:10;;;;;;;9.00;5.25;;;9.30;99.90;;;;;;5099467;28;20046;-60
2023/10/19 00:19:57;;;;;;;12.05;4.80;;;9.30;99.90;;;;;;5093084;28;20109;-61
2023/10/19 00:22:24;;;;;;;7.03;3.97;;;9.30;99.90;;;;;;5091529;28;20043;-59
2023/10/19 00:24:51;;;;;;;7.57;4.57;;;9.30;99.90;;;;;;5105759;28;20065;-61
2023/10/19 00:27:19;;;;;;;6.75;4.00;;;9.30;99.90;;;;;;5111022;28;20039;-60
2023/10/19 00:29:49;;;;;;;9.45;4.22;;;9.40;99.90;;;;;;5107459;28;20040;-61
2023/10/19 00:32:17;;;;;;;7.72;4.38;;;9.40;99.90;;;;;;5111776;28;20122;-61
2023/10/19 00:34:51;;;;;;;11.45;4.53;;;9.50;99.90;;;;;;5110706;28;20051;-61
2023/10/19 00:37:26;;;;;;;6.90;4.20;;;9.40;99.90;;;;;;5107836;28;20480;-60
2023/10/19 00:39:55;;;;;;;8.98;4.55;;;9.40;99.90;;;;;;5104823;28;20051;-61
2023/10/19 00:42:30;;;;;;;7.75;4.95;;;9.30;99.90;;;;;;5106911;28;20047;-61
2023/10/19 00:45:04;;;;;;;7.57;4.93;;;9.30;99.90;;;;;;5095924;28;20440;-60
2023/10/19 00:47:39;;;;;;;8.70;4.90;;;9.20;99.90;;;;;;5109725;28;20059;-60
2023/10/19 00:50:12;;;;;;;7.40;3.88;;;9.20;99.90;;;;;;5107523;28;20420;-60
2023/10/19 00:52:43;;;;;;;9.00;4.65;;;9.30;99.90;;;;;;5109671;28;20070;-61
2023/10/19 00:55:12;;;;;;;5.70;4.25;;;9.40;99.90;;;;;;5101696;28;20047;-60
2023/10/19 00:57:42;;;;;;;6.20;3.50;;;9.40;99.90;;;;;;5104573;28;20036;-60
2023/10/19 01:00:12;;;;;;;7.97;3.88;;;9.30;99.90;;;;;;5110464;28;20040;-61
2023/10/19 01:02:46;;;;;;;8.27;4.00;;;9.30;99.90;;;;;;5110910;28;20038;-61
2023/10/19 01:05:13;;;;;;;6.88;3.40;;;9.30;99.90;;;;;;5110606;28;20043;-61
2023/10/19 01:07:40;;;;;;;5.22;3.38;;;9.30;99.90;;;;;;5110114;28;20044;-60
2023/10/19 01:10:08;;;;;;;7.93;3.55;;;9.30;99.90;;;;;;5110287;28;20048;-60
2023/10/19 01:12:39;;;;;;;7.25;3.63;;;9.40;99.90;;;;;;5111257;28;20110;-60
2023/10/19 01:17:58;;;;;;;7.25;3.67;;;9.40;99.90;;;;;;5094744;28;20152;-60
2023/10/19 01:28:47;;;;;;;4.78;3.25;;;9.00;99.90;;;;;;5108279;28;20044;-61
2023/10/19 01:34:06;;;;;;;5.35;3.70;;;8.80;99.90;;;;;;5102754;28;20484;-61
2023/10/19 01:36:42;;;;;;;5.72;3.10;;;8.80;99.90;;;;;;5108933;28;20085;-61
2023/10/19 01:39:12;;;;;;;6.88;3.25;;;8.80;99.90;;;;;;5110269;28;20068;-60
2023/10/19 01:41:41;;;;;;;4.28;2.92;;;8.70;99.90;;;;;;5101685;28;20070;-61
2023/10/19 01:44:12;;;;;;;6.53;3.17;;;8.80;99.90;;;;;;5096255;28;20119;-61
2023/10/19 01:46:40;;;;;;;5.88;3.00;;;8.80;99.90;;;;;;5109744;28;20039;-61
2023/10/19 01:49:08;;;;;;;7.47;3.67;;;8.90;99.90;;;;;;5100476;28;20135;-61
2023/10/19 01:51:38;;;;;;;4.05;2.50;;;9.00;99.90;;;;;;5098450;28;20388;-60
2023/10/19 01:54:07;;;;;;;4.85;2.88;;;9.00;99.90;;;;;;5101181;28;20044;-61
2023/10/19 01:56:35;;;;;;;4.38;2.90;;;9.00;99.90;;;;;;5109929;28;20046;-61
2023/10/19 01:59:04;;;;;;;3.67;2.95;;;9.00;99.90;;;;;;5109749;28;20134;-61
2023/10/19 02:01:32;;;;;;;4.95;2.80;;;9.10;99.90;;;;;;5096798;28;20044;-61
2023/10/19 02:04:00;;;;;;;3.55;2.55;;;9.10;99.90;;;;;;5112394;28;20112;-61
2023/10/19 02:09:09;;;;;;;6.30;2.90;;;9.10;99.90;;;;;;5101909;28;20123;-61
2023/10/19 02:11:41;;;;;;;12.48;2.70;;;9.00;99.90;;;;;;5106079;28;20480;-61
2023/10/19 02:14:15;;;;;;;4.80;2.42;;;9.00;99.90;;;;;;5112065;28;20040;-61
2023/10/19 02:16:47;;;;;;;4.20;2.78;;;9.00;99.90;;;;;;5108884;28;20408;-61
2023/10/19 02:19:14;;;;;;;5.30;2.92;;;9.00;99.90;;;;;;5114760;28;20054;-61
2023/10/19 02:21:42;;;;;;;3.28;2.50;;;9.00;99.90;;;;;;5104454;28;20053;-61
2023/10/19 02:24:16;;;;;;;3.15;2.38;;;9.00;99.90;;;;;;5098705;28;20064;-61
2023/10/19 02:26:46;;;;;;;5.72;2.58;;;9.00;99.90;;;;;;5102839;28;20051;-60
2023/10/19 02:29:13;;;;;;;5.25;3.00;;;9.00;99.90;;;;;;5113098;28;20039;-61
2023/10/19 02:31:41;;;;;;;5.05;2.60;;;9.00;99.90;;;;;;5112023;28;20031;-61
2023/10/19 02:34:11;;;;;;;5.82;2.65;;;9.00;99.90;;;;;;5097120;28;20071;-60
2023/10/19 02:36:40;;;;;;;3.42;2.35;;;9.00;99.90;;;;;;5113139;28;20080;-61
2023/10/19 02:39:09;;;;;;;2.95;2.50;;;9.00;99.90;;;;;;5103968;28;20405;-61
2023/10/19 02:41:37;;;;;;;3.92;2.53;;;9.10;99.90;;;;;;5105393;28;20051;-61
2023/10/19 02:46:39;;;;;;;3.88;2.40;;;9.10;99.90;;;;;;5095383;28;20047;-59
2023/10/19 02:49:11;;;;;;;4.43;2.20;;;9.10;99.90;;;;;;5105482;28;20044;-60
2023/10/19 02:51:40;;;;;;;5.90;2.42;;;9.10;99.90;;;;;;5113128;28;20124;-61
2023/10/19 02:54:07;;;;;;;5.95;2.28;;;9.10;99.90;;;;;;5100505;28;20044;-61
2023/10/19 02:56:35;;;;;;;4.25;2.53;;;9.10;99.90;;;;;;5109392;28;20178;-61
2023/10/19 02:59:05;;;;;;;3.97;2.35;;;9.10;99.90;;;;;;5104124;28;20036;-61
2023/10/19 03:01:34;;;;;;;3.58;2.15;;;9.10;99.90;;;;;;5104437;28;20058;-61
2023/10/19 03:04:02;;;;;;;4.18;2.13;;;9.10;99.90;;;;;;5111021;28;20484;-61
2023/10/19 03:06:34;;;;;;;3.58;2.30;;;9.20;99.90;;;;;;5106036;28;20058;-60
2023/10/19 03:09:15;;;;;;;5.18;2.40;;;9.20;99.90;;;;;;5108745;28;20047;-61
2023/10/19 03:11:44;;;;;;;4.30;2.40;;;9.10;99.90;;;;;;5104928;28;20054;-61
2023/10/19 03:14:14;;;;;;;4.68;2.20;;;9.10;99.90;;;;;;5111580;28;20036;-61
2023/10/19 03:16:42;;;;;;;3.35;1.88;;;9.20;99.90;;;;;;5111491;28;20092;-61
2023/10/19 03:19:09;;;;;;;4.25;2.30;;;9.20;99.90;;;;;;5107496;28;20040;-60
2023/10/19 03:21:49;;;;;;;3.50;2.38;;;9.20;99.90;;;;;;5100014;28;20052;-61
2023/10/19 03:24:35;;;;;;;2.90;2.17;;;9.20;99.90;;;;;;5105095;28;20046;-61
2023/10/19 03:27:16;;;;;;;3.30;2.28;;;9.20;99.90;;;;;;5100372;28;20385;-60
2023/10/19 03:29:53;;;;;;;3.65;2.20;;;9.20;99.90;;;;;;5104521;28;20104;-61
2023/10/19 03:32:28;;;;;;;4.03;2.00;;;9.20;99.90;;;;;;5096461;28;20093;-61
2023/10/19 03:34:56;;;;;;;6.32;2.08;;;9.20;99.90;;;;;;5111501;28;20415;-60
2023/10/19 03:37:25;;;;;;;2.25;1.85;;;9.20;99.90;;;;;;5101222;28;20043;-60
2023/10/19 03:39:56;;;;;;;4.13;2.22;;;9.20;99.90;;;;;;5100431;28;20469;-61
2023/10/19 03:42:31;;;;;;;3.50;2.67;;;9.30;99.90;;;;;;5101892;28;20407;-61
2023/10/19 03:45:02;;;;;;;6.50;2.17;;;9.30;99.90;;;;;;5097962;28;20040;-59
2023/10/19 03:47:34;;;;;;;3.83;2.17;;;9.30;99.90;;;;;;5097952;28;20055;-60
2023/10/19 03:50:06;;;;;;;4.03;2.28;;;9.40;99.90;;;;;;5105365;28;20032;-59
2023/10/19 03:52:37;;;;;;;3.42;2.20;;;9.40;99.90;;;;;;5097760;28;20040;-61
2023/10/19 03:55:15;;;;;;;3.97;2.00;;;9.40;99.90;;;;;;5098673;28;20062;-61
2023/10/19 03:57:46;;;;;;;4.03;1.92;;;9.50;99.90;;;;;;5097819;28;20412;-61
2023/10/19 04:00:18;;;;;;;2.65;1.85;;;9.60;99.90;;;;;;5095867;28;20400;-61
2023/10/19 04:02:46;;;;;;;3.17;1.73;;;9.80;99.90;;;;;;5100854;28;20053;-61
2023/10/19 04:05:21;;;;;;;4.25;1.55;;;9.90;99.90;;;;;;5099277;28;20071;-61
2023/10/19 04:07:55;;;;;;;4.88;1.70;;;10.00;99.90;;;;;;5102529;28;20061;-61
2023/10/19 04:13:02;;;;;;;3.65;2.05;;;10.20;99.90;;;;;;5094982;28;20036;-61
2023/10/19 04:15:29;;;;;;;3.30;2.13;;;10.20;99.90;;;;;;5101328;27;20028;-61
2023/10/19 04:17:58;;;;;;;5.78;2.05;;;10.20;99.90;;;;;;5100037;28;20048;-61
2023/10/19 04:22:53;;;;;;;7.32;2.10;;;10.30;99.90;;;;;;5101138;28;20044;-61
2023/10/19 04:25:25;;;;;;;7.88;3.25;;;10.20;99.90;;;;;;5099969;28;20115;-61
2023/10/19 04:27:52;;;;;;;7.80;2.95;;;10.30;99.90;;;;;;5100873;28;20131;-60
2023/10/19 04:30:24;;;;;;;7.47;3.70;;;10.30;99.90;;;;;;5097312;28;20040;-61
2023/10/19 04:32:52;;;;;;;10.18;4.57;;;10.40;99.90;;;;;;5098872;28;20040;-60
2023/10/19 04:35:22;;;;;;;7.90;3.22;;;10.40;99.90;;;;;;5104625;28;20039;-60
2023/10/19 04:37:53;;;;;;;10.75;4.03;;;10.40;99.90;;;;;;5111083;28;20106;-60
2023/10/19 04:40:22;;;;;;;5.00;2.80;;;10.40;99.90;;;;;;5111739;28;20047;-59
2023/10/19 04:42:57;;;;;;;12.88;5.80;;;10.40;99.90;;;;;;5111770;28;20044;-61
2023/10/19 04:45:24;;;;;;;6.50;3.15;;;10.50;99.90;;;;;;5111295;28;20684;-61
2023/10/19 04:47:54;;;;;;;6.32;3.28;;;10.30;99.90;;;;;;5103931;28;20044;-60
2023/10/19 04:50:22;;;;;;;6.20;2.85;;;10.30;99.90;;;;;;5112049;28;20096;-60
2023/10/19 04:52:48;;;;;;;6.20;2.88;;;10.20;99.90;;;;;;5109186;28;20040;-61
2023/10/19 04:55:15;;;;;;;5.03;3.15;;;10.20;99.90;;;;;;5111257;28;20039;-61
2023/10/19 04:57:42;;;;;;;4.97;3.03;;;10.10;99.90;;;;;;5106037;28;20055;-61
2023/10/19 05:00:13;;;;;;;4.00;2.58;;;10.10;99.90;;;;;;5111618;28;20051;-61
2023/10/19 05:02:40;;;;;;;3.90;2.38;;;10.00;99.90;;;;;;5107917;28;20050;-60
2023/10/19 05:05:08;;;;;;;5.55;2.20;;;10.10;99.90;;;;;;5110117;28;20116;-59
2023/10/19 05:07:35;;;;;;;3.95;1.90;;;10.10;99.90;;;;;;5111650;28;20040;-60
2023/10/19 05:10:05;;;;;;;4.75;2.30;;;10.20;99.90;;;;;;5108708;28;20671;-61
2023/10/19 05:12:32;;;;;;;4.55;2.50;;;10.20;99.90;;;;;;5105253;28;20050;-60
2023/10/19 05:14:58;;;;;;;6.30;2.08;;;10.30;99.90;;;;;;5103436;28;20035;-61
2023/10/19 05:17:27;;;;;;;8.70;2.33;;;10.30;99.90;;;;;;5108055;28;20048;-60
2023/10/19 05:19:54;;;;;;;4.28;2.35;;;10.30;99.90;;;;;;5103060;28;20048;-60
2023/10/19 05:22:21;;;;;;;4.95;3.42;;;10.30;99.90;;;;;;5099722;28;20048;-59
2023/10/19 05:24:48;;;;;;;8.13;2.70;;;10.30;99.90;;;;;;5108215;28;20035;-60
2023/10/19 05:27:15;;;;;;;8.30;2.78;;;10.20;99.90;;;;;;5111538;28;20048;-61
2023/10/19 05:29:43;;;;;;;3.10;2.22;;;10.20;99.90;;;;;;5108664;28;20066;-59
2023/10/19 05:32:10;;;;;;;3.42;2.25;;;10.20;99.90;;;;;;5110651;28;20040;-60
2023/10/19 05:34:37;;;;;;;4.45;2.47;;;10.10;99.90;;;;;;5095074;28;20040;-60
2023/10/19 05:37:05;;;;;;;3.97;2.30;;;10.10;99.90;;;;;;5109873;28;20496;-58
2023/10/19 05:39:33;;;;;;;3.85;2.10;;;10.10;99.90;;;;;;5115207;28;20106;-60
2023/10/19 05:42:00;;;;;;;8.95;4.68;;;10.10;99.90;;;;;;5097400;28;20036;-59
2023/10/19 05:44:31;;;;;;;10.43;5.53;;;10.20;99.90;;;;;;5108430;28;20074;-61
2023/10/19 05:46:58;;;;;;;9.13;4.65;;;10.20;99.90;;;;;;5113991;28;20047;-59
2023/10/19 05:49:28;;;;;;;9.30;4.95;;;10.20;99.90;;;;;;5115318;28;20051;-60
2023/10/19 05:51:55;;;;;;;6.35;3.45;;;10.30;99.90;;;;;;5109068;28;20046;-60
2023/10/19 05:54:23;;;;;;;12.85;5.70;;;10.30;99.90;;;;;;5103439;28;20039;-59
2023/10/19 05:56:51;;;;;;;9.85;4.63;;;10.30;99.90;;;;;;5093709;28;20036;-60
2023/10/19 05:59:18;;;;;;;9.77;4.25;;;10.30;99.90;;;;;;5099625;28;20055;-60
2023/10/19 06:01:48;;;;;;;4.80;3.13;;;10.40;99.90;;;;;;5105419;28;20061;-60
2023/10/19 06:04:16;;;;;;;10.18;4.95;;;10.40;99.90;;;;;;5113877;28;20055;-60
2023/10/19 06:06:48;;;;;;;14.55;5.90;;;10.40;99.90;;;;;;5107106;28;20052;-60
2023/10/19 06:09:15;;;;;;;9.20;5.00;;;10.40;99.90;;;;;;5104863;28;20435;-60
2023/10/19 06:11:42;;;;;;;8.55;4.90;;;10.40;99.90;;;;;;5113217;28;20036;-61
2023/10/19 06:14:10;;;;;;;7.95;4.00;;;10.40;99.90;;;;;;5113878;28;20484;-61
2023/10/19 06:16:37;;;;;;;13.63;4.10;;;10.50;99.90;;;;;;5108393;28;20123;-61
2023/10/19 06:19:05;;;;;;;9.55;4.30;;;10.50;99.90;;;;;;5112349;28;20105;-60
2023/10/19 06:21:33;;;;;;;10.75;4.45;;;10.60;99.90;;;;;;5114031;28;20065;-60
2023/10/19 06:24:00;;;;;;;7.93;3.95;;;10.60;99.90;;;;;;5112542;28;20466;-59
2023/10/19 06:26:27;;;;;;;6.43;3.80;;;10.60;99.90;;;;;;5105798;28;20412;-60
2023/10/19 06:29:00;;;;;;;6.03;3.50;;;10.60;99.90;;;;;;5114233;28;20051;-60
2023/10/19 06:31:28;;;;;;;7.30;3.17;;;10.60;99.90;;;;;;5106070;28;20046;-59
2023/10/19 06:33:57;;;;;;;6.82;3.67;;;10.60;99.90;;;;;;5113793;28;20035;-59
2023/10/19 06:36:24;;;;;;;5.32;2.75;;;10.60;99.90;;;;;;5113324;28;20095;-58
2023/10/19 06:38:51;;;;;;;5.55;2.70;;;10.60;99.90;;;;;;5111087;28;20054;-61
2023/10/19 06:41:20;;;;;;;4.25;2.78;;;10.60;99.90;;;;;;5111626;28;20036;-60
2023/10/19 06:43:47;;;;;;;4.13;2.25;;;10.70;99.90;;;;;;5109355;28;20130;-60
2023/10/19 06:46:14;;;;;;;6.65;2.95;;;10.80;99.90;;;;;;5109671;28;20154;-59
2023/10/19 06:48:42;;;;;;;4.45;2.40;;;10.80;99.90;;;;;;5113668;28;20043;-60
2023/10/19 06:51:09;;;;;;;4.13;2.80;;;10.90;99.90;;;;;;5111556;28;20044;-60
2023/10/19 06:53:36;;;;;;;3.70;2.45;;;11.00;99.90;;;;;;5107410;28;20039;-60
2023/10/19 06:56:04;;;;;;;3.55;2.55;;;11.00;99.90;;;;;;5103116;28;20067;-60
2023/10/19 06:58:31;;;;;;;6.43;2.55;;;11.10;99.90;;;;;;5114008;28;20476;-60
2023/10/19 07:01:05;;;;;;;6.82;2.88;;;11.20;99.90;;;;;;5113219;28;20410;-59
2023/10/19 07:03:32;;;;;;;3.35;2.40;;;11.20;99.90;;;;;;5108553;28;20560;-60
2023/10/19 07:05:59;;;;;;;5.53;2.20;;;11.30;99.90;;;;;;5109998;28;20044;-59
2023/10/19 07:08:27;;;;;;;12.95;6.82;;;11.30;99.90;;;;;;5110316;28;20495;-60
2023/10/19 07:10:54;;;;;;;9.05;4.20;;;11.30;99.90;;;;;;5109391;28;20071;-61
2023/10/19 07:13:21;;;;;;;10.35;3.25;;;11.40;99.90;;;;;;5112445;28;20099;-60
2023/10/19 07:15:51;;;;;;;;;;;11.50;99.90;;;;;;5113863;28;20042;-61
2023/10/19 07:18:18;;;;;;;27.58;12.18;;;11.50;99.90;;;;;;5111404;28;19927;-61
2023/10/19 07:20:48;;;;;;;35.67;14.02;;;11.60;99.90;;;;;;5105518;28;20043;-60
2023/10/19 07:23:21;;;;;;;23.77;9.68;;;11.70;99.90;;;;;;5113274;28;20109;-59
2023/10/19 07:25:52;;;;;;;16.00;7.60;;;11.70;99.90;;;;;;5106257;28;20522;-60
2023/10/19 07:28:19;;;;;;;9.23;4.10;;;11.80;99.90;;;;;;5112897;28;20052;-60
2023/10/19 07:30:46;;;;;;;4.82;2.70;;;11.80;99.90;;;;;;5106117;28;20053;-60
2023/10/19 07:33:17;;;;;;;4.82;2.47;;;11.80;99.90;;;;;;5112618;28;20039;-60
2023/10/19 07:35:52;;;;;;;5.32;2.45;;;11.90;99.90;;;;;;5094032;28;20104;-59
2023/10/19 07:38:22;;;;;;;5.60;3.08;;;11.90;99.90;;;;;;5111250;28;20062;-61
2023/10/19 07:40:49;;;;;;;5.25;3.47;;;12.00;99.90;;;;;;5104919;28;20063;-61
2023/10/19 07:43:16;;;;;;;7.60;3.58;;;12.00;99.90;;;;;;5110082;28;20100;-59
2023/10/19 07:45:42;;;;;;;7.65;3.70;;;12.20;99.90;;;;;;5092513;28;20050;-61
2023/10/19 07:48:13;;;;;;;8.05;3.45;;;12.20;99.90;;;;;;5100691;28;20082;-61
2023/10/19 07:50:40;;;;;;;8.82;3.40;;;12.20;99.90;;;;;;5111739;28;20456;-60
2023/10/19 07:53:09;;;;;;;6.38;3.70;;;12.40;99.90;;;;;;5103745;28;20047;-60
2023/10/19 07:55:37;;;;;;;10.55;5.05;;;12.40;99.90;;;;;;5112508;28;20519;-60
2023/10/19 07:58:06;;;;;;;9.30;5.10;;;12.50;99.90;;;;;;5108051;28;20050;-60
2023/10/19 08:00:36;;;;;;;8.40;5.03;;;12.70;99.90;;;;;;5108136;28;20594;-60
2023/10/19 08:03:04;;;;;;;8.18;5.28;;;12.70;99.90;;;;;;5108378;28;20050;-60
2023/10/19 08:05:33;;;;;;;13.13;5.53;;;12.80;99.90;;;;;;5111277;28;20039;-61
2023/10/19 08:08:00;;;;;;;14.40;5.55;;;12.80;99.90;;;;;;5112186;28;20104;-60
2023/10/19 08:10:27;;;;;;;;;;;12.90;99.90;;;;;;5099557;28;20047;-60
2023/10/19 08:12:55;;;;;;;15.23;4.30;;;13.00;99.90;;;;;;5112015;28;20334;-60
2023/10/19 08:15:23;;;;;;;9.55;4.03;;;13.00;99.90;;;;;;5112233;28;20089;-60
2023/10/19 08:17:53;;;;;;;9.38;3.70;;;13.10;99.90;;;;;;5105678;28;20040;-60
2023/10/19 08:20:24;;;;;;;7.18;4.03;;;13.20;99.90;;;;;;5102172;28;20126;-60
2023/10/19 08:22:53;;;;;;;8.27;3.92;;;13.30;99.90;;;;;;5111534;28;20044;-60
2023/10/19 08:25:20;;;;;;;6.25;4.10;;;13.40;99.90;;;;;;5112060;28;20373;-61
2023/10/19 08:27:56;;;;;;;9.40;4.45;;;13.50;99.90;;;;;;5103305;28;20048;-60
2023/10/19 08:30:23;;;;;;;9.38;4.05;;;13.50;99.90;;;;;;5110766;28;20049;-61
2023/10/19 08:32:54;;;;;;;12.38;4.32;;;13.50;99.90;;;;;;5111184;28;20047;-60
2023/10/19 08:35:24;;;;;;;13.20;5.15;;;13.60;99.90;;;;;;5110602;28;20344;-61
2023/10/19 08:37:54;;;;;;;9.98;4.38;;;13.70;99.90;;;;;;5097129;28;20044;-60
2023/10/19 08:40:23;;;;;;;6.05;4.00;;;13.70;99.90;;;;;;5111661;28;20082;-60
2023/10/19 08:42:50;;;;;;;9.30;4.45;;;13.80;99.90;;;;;;5103388;28;20047;-60
2023/10/19 08:45:17;;;;;;;7.85;4.00;;;13.80;99.90;;;;;;5111717;28;20043;-60
2023/10/19 08:47:57;;;;;;;5.78;4.10;;;13.80;99.90;;;;;;5110734;28;20425;-59
2023/10/19 08:50:29;;;;;;;7.50;3.58;;;13.80;99.90;;;;;;5102498;28;20055;-60
2023/10/19 08:53:04;;;;;;;6.03;3.90;;;13.90;99.90;;;;;;5106171;28;20043;-60
2023/10/19 08:55:34;;;;;;;6.85;4.22;;;14.00;99.90;;;;;;5111111;28;20077;-60
2023/10/19 08:58:16;;;;;;;5.60;3.50;;;14.10;99.90;;;;;;5111284;28;20476;-61
2023/10/19 09:00:54;;;;;;;8.20;3.53;;;14.10;99.90;;;;;;5102534;28;20048;-61
2023/10/19 09:03:24;;;;;;;6.88;3.80;;;14.20;99.90;;;;;;5111172;28;20036;-60
2023/10/19 09:05:51;;;;;;;10.15;3.58;;;14.30;99.90;;;;;;5111187;28;20079;-61
2023/10/19 09:08:19;;;;;;;10.07;3.92;;;14.30;99.90;;;;;;5106830;28;20051;-61
2023/10/19 09:10:48;;;;;;;5.90;3.97;;;14.40;99.90;;;;;;5109576;28;20484;-61
2023/10/19 09:13:18;;;;;;;6.25;3.83;;;14.40;99.90;;;;;;5112535;28;20124;-60
2023/10/19 09:15:48;;;;;;;10.02;3.90;;;14.30;99.90;;;;;;5115220;28;20039;-59
2023/10/19 09:18:17;;;;;;;14.20;4.65;;;14.30;99.90;;;;;;5115426;28;20109;-60
2023/10/19 09:21:07;;;;;;;13.07;4.03;;;14.20;99.90;;;;;;5113322;28;20043;-60
2023/10/19 09:23:36;;;;;;;5.90;3.45;;;14.20;99.90;;;;;;5106961;28;20043;-60
2023/10/19 09:26:05;;;;;;;5.82;4.03;;;14.30;99.90;;;;;;5115450;28;20036;-60
2023/10/19 09:28:36;;;;;;;7.30;3.72;;;14.30;99.90;;;;;;5115171;28;20038;-61
2023/10/19 09:31:04;;;;;;;6.10;3.40;;;14.30;99.90;;;;;;5106632;28;20032;-61
2023/10/19 09:33:33;;;;;;;7.07;3.63;;;14.40;99.90;;;;;;5114114;28;20040;-60
2023/10/19 09:36:04;;;;;;;5.43;3.05;;;14.50;99.90;;;;;;5107149;28;20400;-60
2023/10/19 09:38:32;;;;;;;7.60;3.15;;;14.80;99.90;;;;;;5114231;28;20074;-60
2023/10/19 09:41:00;;;;;;;6.13;3.10;;;15.00;99.90;;;;;;5108357;28;20046;-60
2023/10/19 09:43:35;;;;;;;7.85;2.95;;;15.10;99.90;;;;;;5113441;28;20500;-60
2023/10/19 09:46:07;;;;;;;8.30;3.15;;;15.20;99.90;;;;;;5114165;28;20044;-61
2023/10/19 09:48:48;;;;;;;7.32;3.17;;;15.40;99.90;;;;;;5114919;28;20043;-61
2023/10/19 09:51:16;;;;;;;9.20;3.35;;;15.70;99.90;;;;;;5106126;28;20134;-61
2023/10/19 09:54:04;;;;;;;6.55;2.45;;;15.90;99.90;;;;;;5114644;27;20039;-61
2023/10/19 09:56:38;;;;;;;7.32;2.60;;;16.00;99.90;;;;;;5107646;28;20131;-60
2023/10/19 09:59:07;;;;;;;4.93;2.55;;;16.20;99.90;;;;;;5114368;28;20043;-60
2023/10/19 10:02:12;;;;;;;6.07;2.58;;;16.20;99.90;;;;;;5114170;28;20083;-61
2023/10/19 10:04:41;;;;;;;4.20;2.47;;;16.30;99.90;;;;;;5105333;28;20100;-61
2023/10/19 10:07:09;;;;;;;4.90;2.47;;;16.40;99.90;;;;;;5114470;27;20052;-60
2023/10/19 10:09:45;;;;;;;5.22;2.20;;;16.50;99.90;;;;;;5114242;28;20084;-61
2023/10/19 10:12:23;;;;;;;6.13;2.83;;;16.40;99.90;;;;;;5105940;28;20050;-61
2023/10/19 10:15:02;;;;;;;4.68;2.58;;;16.50;99.90;;;;;;5107649;28;20047;-59
2023/10/19 10:17:32;;;;;;;3.80;2.53;;;16.70;99.90;;;;;;5113978;28;20114;-60
2023/10/19 10:20:15;;;;;;;5.25;2.83;;;16.90;99.90;;;;;;5107988;28;20055;-60
2023/10/19 10:22:41;;;;;;;7.22;2.63;;;17.00;99.90;;;;;;5105993;28;20473;-60
2023/10/19 10:25:27;;;;;;;4.90;2.70;;;17.10;99.90;;;;;;5114226;28;20063;-61
2023/10/19 10:27:55;;;;;;;13.52;3.45;;;17.10;99.90;;;;;;5114053;28;20058;-60
2023/10/19 10:30:22;;;;;;;4.80;2.42;;;16.90;99.90;;;;;;5104804;28;20043;-60
2023/10/19 10:32:54;;;;;;;3.83;2.15;;;17.00;99.90;;;;;;5113834;28;20044;-60
2023/10/19 10:35:36;;;;;;;3.97;2.38;;;17.00;99.90;;;;;;5114067;28;20040;-60
2023/10/19 10:38:07;;;;;;;3.90;2.35;;;17.20;99.90;;;;;;5107985;28;20477;-60
2023/10/19 10:40:48;;;;;;;6.00;3.13;;;17.20;99.90;;;;;;5111973;28;20036;-61
2023/10/19 10:43:16;;;;;;;5.53;2.95;;;17.30;99.90;;;;;;5113547;28;20048;-61
2023/10/19 10:45:43;;;;;;;4.10;2.40;;;17.40;99.90;;;;;;5103118;28;20122;-60
2023/10/19 10:48:18;;;;;;;5.20;2.30;;;17.50;99.90;;;;;;5113060;28;20126;-61
2023/10/19 10:50:46;;;;;;;5.82;2.30;;;17.60;99.90;;;;;;5112433;28;20126;-60
2023/10/19 10:53:17;;;;;;;4.43;2.60;;;17.80;99.90;;;;;;5109933;28;20069;-60
2023/10/19 10:55:44;;;;;;;8.50;2.92;;;17.80;99.90;;;;;;5104722;28;20484;-61
2023/10/19 10:58:18;;;;;;;5.80;2.25;;;17.60;99.90;;;;;;5113689;28;20046;-58
2023/10/19 11:00:48;;;;;;;7.03;2.55;;;17.40;99.90;;;;;;5105034;28;20400;-61
2023/10/19 11:03:15;;;;;;;4.57;1.83;;;17.40;99.90;;;;;;5105638;28;20434;-61
2023/10/19 11:05:45;;;;;;;3.00;2.08;;;17.50;99.90;;;;;;5113249;28;20401;-61
2023/10/19 11:08:14;;;;;;;3.72;2.45;;;17.60;99.90;;;;;;5113134;28;20092;-61
2023/10/19 11:10:42;;;;;;;8.32;2.50;;;17.80;99.90;;;;;;5113413;28;20498;-61
2023/10/19 11:13:11;;;;;;;7.50;2.15;;;17.90;99.90;;;;;;5108838;28;20067;-61
2023/10/19 11:15:47;;;;;;;5.82;2.00;;;18.00;99.90;;;;;;5106805;28;20070;-61
2023/10/19 11:18:28;;;;;;;3.42;2.33;;;18.00;99.90;;;;;;5108900;28;20044;-61
2023/10/19 11:20:56;;;;;;;2.50;2.03;;;18.10;99.90;;;;;;5108609;28;20040;-61
2023/10/19 11:23:47;;;;;;;4.85;1.80;;;18.20;99.90;;;;;;5108178;28;20054;-61
2023/10/19 11:26:16;;;;;;;3.78;2.10;;;18.20;99.90;;;;;;5107463;28;20040;-61
2023/10/19 11:28:47;;;;;;;3.63;2.20;;;18.20;99.90;;;;;;5112653;28;20044;-61
2023/10/19 11:31:23;;;;;;;5.43;2.03;;;18.20;99.90;;;;;;5111988;28;20161;-60
2023/10/19 11:33:52;;;;;;;4.90;2.37;;;18.30;99.90;;;;;;5111770;28;20434;-61
2023/10/19 11:36:21;;;;;;;7.32;2.72;;;18.50;99.90;;;;;;5104427;28;20040;-60
2023/10/19 11:38:51;;;;;;;6.65;2.55;;;18.60;99.90;;;;;;5103931;28;20031;-61
2023/10/19 11:41:18;;;;;;;11.60;2.38;;;18.70;99.90;;;;;;5112709;28;20039;-60
2023/10/19 11:43:46;;;;;;;;;;;18.80;99.90;;;;;;5095052;28;20046;-60
2023/10/19 11:46:14;;;;;;;4.82;2.47;;;19.10;99.90;;;;;;5093489;28;19920;-59
2023/10/19 11:48:45;;;;;;;5.15;2.63;;;19.30;99.90;;;;;;5111257;28;20051;-60
2023/10/19 11:51:13;;;;;;;7.68;2.70;;;19.40;99.90;;;;;;5112313;27;20066;-61
2023/10/19 11:53:42;;;;;;;8.00;2.22;;;19.40;99.90;;;;;;5107427;28;20532;-61
2023/10/19 11:56:12;;;;;;;6.88;2.20;;;19.40;99.90;;;;;;5092288;28;20040;-61
2023/10/19 11:58:41;;;;;;;11.93;2.65;;;19.10;99.90;;;;;;5110490;28;20044;-60
2023/10/19 12:01:11;;;;;;;5.68;2.33;;;18.90;99.90;;;;;;5108772;28;20044;-61
2023/10/19 12:03:40;;;;;;;6.78;2.47;;;18.80;99.90;;;;;;5111146;28;20048;-60
2023/10/19 12:06:08;;;;;;;6.63;2.45;;;18.80;99.90;;;;;;5112287;28;20039;-60
2023/10/19 12:08:36;;;;;;;5.97;2.70;;;18.80;99.90;;;;;;5112109;28;20564;-61
2023/10/19 12:11:04;;;;;;;7.75;2.70;;;18.90;99.90;;;;;;5110407;28;20050;-61
2023/10/19 12:13:31;;;;;;;4.85;2.90;;;19.00;99.90;;;;;;5111761;28;20051;-61
2023/10/19 12:15:58;;;;;;;;;;;19.10;99.90;;;;;;5109904;28;20059;-61
2023/10/19 12:18:28;;;;;;;12.70;5.55;;;18.80;99.90;;;;;;5111997;28;19930;-60
2023/10/19 12:20:59;;;;;;;12.55;4.72;;;18.50;99.90;;;;;;5106633;28;20058;-61
2023/10/19 12:23:26;;;;;;;10.63;6.07;;;18.10;99.90;;;;;;5108251;28;20050;-60
2023/10/19 12:25:53;;;;;;;11.00;5.78;;;18.00;99.90;;;;;;5110947;27;20051;-60
2023/10/19 12:28:25;;;;;;;14.57;6.72;;;18.00;99.90;;;;;;5110643;28;20134;-61
2023/10/19 12:30:52;;;;;;;11.27;6.80;;;18.00;99.90;;;;;;5111647;28;20069;-61
2023/10/19 12:33:19;;;;;;;8.88;6.68;;;18.10;99.90;;;;;;5101955;28;20039;-61
2023/10/19 12:35:59;;;;;;;11.27;6.72;;;18.30;99.90;;;;;;5111759;28;20530;-61
2023/10/19 12:38:27;;;;;;;10.48;6.70;;;18.70;99.90;;;;;;5111673;28;20550;-61
2023/10/19 12:40:54;;;;;;;13.50;6.72;;;19.00;99.90;;;;;;5110181;28;20155;-60
2023/10/19 12:43:25;;;;;;;16.65;6.70;;;19.20;99.90;;;;;;5110022;28;20043;-60
2023/10/19 12:45:57;;;;;;;15.25;7.85;;;19.20;99.90;;;;;;5107962;28;20042;-61
2023/10/19 12:48:33;;;;;;;14.93;6.47;;;18.90;99.90;;;;;;5110617;28;20067;-61
2023/10/19 12:51:01;;;;;;;10.90;5.65;;;18.70;99.90;;;;;;5110626;28;20403;-61
2023/10/19 12:53:28;;;;;;;11.55;6.47;;;18.60;99.90;;;;;;5111952;28;20040;-60
2023/10/19 12:55:55;;;;;;;12.13;6.28;;;18.60;99.90;;;;;;5106655;28;20031;-60
2023/10/19 12:58:22;;;;;;;9.98;5.75;;;18.60;99.90;;;;;;5111616;28;20028;-60
2023/10/19 13:00:48;;;;;;;21.92;6.28;;;18.40;99.90;;;;;;5111466;28;20040;-60
2023/10/19 13:03:16;;;;;;;10.23;6.07;;;18.30;99.90;;;;;;5104192;28;20051;-59
2023/10/19 13:05:46;;;;;;;7.72;4.72;;;18.10;99.90;;;;;;5109568;28;20047;-61
2023/10/19 13:08:14;;;;;;;8.48;4.72;;;18.10;99.90;;;;;;5109819;28;20048;-61
2023/10/19 13:10:42;;;;;;;;;;;18.40;99.90;;;;;;5111722;28;20035;-60
2023/10/19 13:13:14;;;;;;;7.85;4.03;;;18.60;99.90;;;;;;5105567;28;20280;-60
2023/10/19 13:15:44;;;;;;;11.05;3.78;;;18.80;99.90;;;;;;5111157;28;20075;-60
2023/10/19 13:18:25;;;;;;;7.22;4.00;;;18.90;99.90;;;;;;5110708;28;20545;-61
2023/10/19 13:20:54;;;;;;;8.10;4.75;;;18.70;99.90;;;;;;5108405;28;20036;-61
2023/10/19 13:23:23;;;;;;;8.20;4.38;;;18.80;99.90;;;;;;5106877;28;20044;-61
2023/10/19 13:25:53;;;;;;;6.15;3.97;;;19.00;99.90;;;;;;5111040;28;20459;-60
2023/10/19 13:28:22;;;;;;;6.28;3.85;;;19.00;99.90;;;;;;5111143;28;20032;-60